Queen Of Nanaimo — VCNX — position and weather

sailwx.info

Track history (hours):
 
Tides and Currents Weather Stations Pressure Air Temp Water Temp Dewpoint Dewpoint Depression Visibility Wind Speed Wind Dir Waves Ship Positions

Queen Of Nanaimo

Last reported at 2014-Nov-24 06:33 UTC. Time now 2014-Nov-24 09:34 UTC.
Position N 48°52' W 123°21'.

Length 130 m; draft 4 m.

Type: Ship. MMSI: 316001254.

Date/timePositionNaut miles runAvg speedWind from/ knotsBaromVisibWave heightAir tempDewpointWater temp
2014-Nov-24 06:33N 48°52' W 123°21'1212.3
2014-Nov-24 05:33N 49°00' W 123°08'1110.7
2014-Nov-24 04:33N 48°52' W 123°18'0 0.2
2014-Nov-24 03:33N 48°52' W 123°18'1110.5
2014-Nov-24 02:33N 49°00' W 123°08'5 5.4
2014-Nov-24 01:34N 48°56' W 123°13'7 6.5
2014-Nov-24 00:29N 48°51' W 123°20'4 1.5
2014-Nov-23 22:04N 48°50' W 123°25'5 7.1
2014-Nov-23 21:23N 48°48' W 123°19'4 5.1
2014-Nov-23 20:33N 48°52' W 123°18'8 7.5
2014-Nov-23 19:33N 48°58' W 123°12'3 3.4
2014-Nov-23 18:33N 49°00' W 123°08'10 9.9
2014-Nov-23 17:33N 48°53' W 123°18'3 2.8
2014-Nov-23 16:28N 48°50' W 123°20'2 0.2
2014-Nov-23 06:34N 48°51' W 123°24'3 3.4
2014-Nov-23 05:33N 48°53' W 123°19'1110.6
2014-Nov-23 04:33N 49°00' W 123°08'0 0.0
2014-Nov-23 03:33N 49°00' W 123°08'0 0.0
2014-Nov-23 02:33N 49°00' W 123°08'1110.6
2014-Nov-23 01:33N 48°53' W 123°19'5 4.6
2014-Nov-23 00:33N 48°48' W 123°20'5 1.5
2014-Nov-22 21:33N 48°51' W 123°25'1211.9
2014-Nov-22 20:33N 48°59' W 123°11'2 1.8
2014-Nov-22 19:34N 48°57' W 123°12'8 6.0
2014-Nov-22 18:11N 48°51' W 123°20'2 3.1
2014-Nov-22 17:33N 48°53' W 123°19'1110.5
2014-Nov-22 16:33N 49°00' W 123°08'5 4.8
2014-Nov-22 15:34N 48°57' W 123°13'10 1.1
2014-Nov-22 06:14N 48°50' W 123°25'4 6.1
2014-Nov-22 05:32N 48°48' W 123°20'5 4.9
2014-Nov-22 04:34N 48°53' W 123°19'1010.1
2014-Nov-22 03:33N 48°60' W 123°08'1 0.5
2014-Nov-22 02:33N 49°00' W 123°08'1110.6
2014-Nov-22 01:33N 48°53' W 123°19'2 1.9
2014-Nov-22 00:22N 48°50' W 123°20'3 3.3
2014-Nov-21 23:31N 48°49' W 123°24'3 1.1
2014-Nov-21 20:23N 48°48' W 123°19'4 4.2
2014-Nov-21 19:32N 48°52' W 123°20'8 8.4
2014-Nov-21 18:33N 48°58' W 123°12'4 3.6
2014-Nov-21 17:33N 49°00' W 123°08'10 9.7
2014-Nov-21 16:33N 48°53' W 123°18'3 2.6
2014-Nov-21 15:31N 48°51' W 123°20'4 3.6
2014-Nov-21 14:30N 48°50' W 123°25'0 0.1
2014-Nov-21 06:07N 48°50' W 123°25'5 6.8
2014-Nov-21 05:27N 48°48' W 123°20'5 5.4
2014-Nov-21 04:34N 48°53' W 123°19'1010.3
2014-Nov-21 03:34N 49°00' W 123°08'0 0.3
2014-Nov-21 02:34N 49°00' W 123°08'1110.4
2014-Nov-21 01:32N 48°53' W 123°19'2 1.9
2014-Nov-21 00:30N 48°51' W 123°20'3 0.7
2014-Nov-20 20:29N 48°48' W 123°19'4 3.7
2014-Nov-20 19:32N 48°52' W 123°19'8 8.6
2014-Nov-20 18:34N 48°58' W 123°12'3 3.1
2014-Nov-20 17:33N 49°00' W 123°08'1010.3
2014-Nov-20 16:33N 48°53' W 123°18'2 2.1
2014-Nov-20 15:29N 48°51' W 123°20'3 3.6
2014-Nov-20 14:33N 48°50' W 123°25'1 0.1
2014-Nov-20 06:05N 48°51' W 123°25'5 7.3
2014-Nov-20 05:24N 48°48' W 123°19'4 4.6
2014-Nov-20 04:34N 48°52' W 123°19'9 9.0
2014-Nov-20 03:34N 48°59' W 123°10'2 2.0
2014-Nov-20 02:33N 49°00' W 123°08'1110.6
2014-Nov-20 01:33N 48°53' W 123°19'2 1.8
2014-Nov-20 00:29N 48°51' W 123°20'3 0.7
2014-Nov-19 20:32N 48°48' W 123°19'4 3.8
2014-Nov-19 19:33N 48°52' W 123°20'7 7.5
2014-Nov-19 18:34N 48°57' W 123°13'4 4.2
2014-Nov-19 17:29N 49°00' W 123°08'1010.4
2014-Nov-19 16:33N 48°53' W 123°18'3 2.5
2014-Nov-19 15:29N 48°51' W 123°20'4 3.6
2014-Nov-19 14:31N 48°50' W 123°25'1 0.1
2014-Nov-19 06:05N 48°50' W 123°25'5 8.6
2014-Nov-19 05:31N 48°48' W 123°19'4 4.6
2014-Nov-19 04:33N 48°52' W 123°18'9 8.8
2014-Nov-19 03:34N 48°59' W 123°10'2 1.7
2014-Nov-19 02:33N 49°00' W 123°08'11 9.7
2014-Nov-19 01:28N 48°53' W 123°19'2 2.2
2014-Nov-19 00:33N 48°51' W 123°20'3 0.7
2014-Nov-18 20:23N 48°48' W 123°19'4 4.3
2014-Nov-18 19:30N 48°52' W 123°21'7 7.1
2014-Nov-18 18:33N 48°57' W 123°14'5 5.3
2014-Nov-18 17:33N 49°00' W 123°08'1010.0
2014-Nov-18 16:33N 48°53' W 123°18'2 2.5
2014-Nov-18 15:33N 48°51' W 123°20'4 0.4
2014-Nov-18 06:09N 48°51' W 123°25'5 7.6
2014-Nov-18 05:30N 48°48' W 123°19'4 4.0
2014-Nov-18 04:33N 48°52' W 123°19'9 9.3
2014-Nov-18 03:34N 48°59' W 123°10'2 1.8
2014-Nov-18 02:33N 49°00' W 123°08'1110.6
2014-Nov-18 01:33N 48°53' W 123°19'2 1.9
2014-Nov-18 00:28N 48°51' W 123°20'3 3.3
2014-Nov-17 23:28N 48°50' W 123°25'5 1.6
2014-Nov-17 20:31N 48°48' W 123°19'4 4.0
2014-Nov-17 19:33N 48°52' W 123°20'9 8.9
2014-Nov-17 18:33N 48°58' W 123°11'3 3.1
2014-Nov-17 17:33N 49°00' W 123°08'1010.3
2014-Nov-17 16:33N 48°53' W 123°18'2 2.1
2014-Nov-17 15:30N 48°51' W 123°20'3 3.5
2014-Nov-17 14:33N 48°49' W 123°24'4 0.5
2014-Nov-17 06:33N 48°52' W 123°19'1111.3
2014-Nov-17 05:33N 49°00' W 123°08'1211.9
2014-Nov-17 04:33N 48°52' W 123°20'4 4.0
2014-Nov-17 03:33N 48°55' W 123°16'8 8.0
2014-Nov-17 02:33N 49°00' W 123°08'7 6.8
2014-Nov-17 01:34N 48°55' W 123°14'6 5.1
2014-Nov-17 00:29N 48°51' W 123°20'5 2.0
2014-Nov-16 22:09N 48°51' W 123°27'610.0
2014-Nov-16 21:33N 48°48' W 123°19'4 3.8
2014-Nov-16 20:33N 48°52' W 123°20'9 9.1
2014-Nov-16 19:33N 48°58' W 123°11'3 3.0
2014-Nov-16 18:33N 49°00' W 123°08'10 9.6
2014-Nov-16 17:34N 48°53' W 123°18'3 2.7
2014-Nov-16 16:32N 48°51' W 123°20'3 3.5
2014-Nov-16 15:33N 48°49' W 123°24'3 0.3
2014-Nov-16 06:32N 48°51' W 123°21'3 3.0
2014-Nov-16 05:33N 48°53' W 123°18'10 9.6
2014-Nov-16 04:33N 49°00' W 123°08'0 0.0
2014-Nov-16 03:34N 49°00' W 123°08'1 0.7
2014-Nov-16 02:33N 48°60' W 123°08'10 9.9
2014-Nov-16 01:33N 48°53' W 123°19'4 4.4
2014-Nov-16 00:33N 48°48' W 123°20'4 1.3
2014-Nov-15 21:23N 48°50' W 123°25'1214.4
2014-Nov-15 20:33N 48°58' W 123°11'1 1.3
2014-Nov-15 19:33N 48°58' W 123°09'10 8.1
2014-Nov-15 18:19N 48°51' W 123°20'2 2.6
2014-Nov-15 17:33N 48°53' W 123°19'1110.4
2014-Nov-15 16:33N 49°00' W 123°08'5 4.9
2014-Nov-15 15:34N 48°56' W 123°12'11 1.2
2014-Nov-15 06:22N 48°51' W 123°26'5 6.3
2014-Nov-15 05:33N 48°48' W 123°20'5 4.8
2014-Nov-15 04:33N 48°53' W 123°19'1010.2
2014-Nov-15 03:34N 49°00' W 123°08'0 0.4
2014-Nov-15 02:33N 49°00' W 123°08'1110.5
2014-Nov-15 01:33N 48°53' W 123°19'2 1.9
2014-Nov-15 00:30N 48°51' W 123°20'4 3.5
2014-Nov-14 23:28N 48°50' W 123°25'4 1.3
2014-Nov-14 20:18N 48°48' W 123°20'4 5.1
2014-Nov-14 19:33N 48°52' W 123°19'9 9.1
2014-Nov-14 18:33N 48°59' W 123°11'3 2.5
2014-Nov-14 17:34N 49°00' W 123°08'1010.3
2014-Nov-14 16:33N 48°53' W 123°18'2 2.0
2014-Nov-14 15:32N 48°51' W 123°20'  
Track history (hours):
 
Tides and Currents Weather Stations Pressure Air Temp Water Temp Dewpoint Dewpoint Depression Visibility Wind Speed Wind Dir Waves Ship Positions

Queen Of Nanaimo

Last reported at 2014-Nov-24 06:33 UTC. Time now 2014-Nov-24 09:34 UTC.
Position N 48°52' W 123°21'.

Length 130 m; draft 4 m.

Type: Ship. MMSI: 316001254.

Date/timePositionNaut miles runAvg speedWind from/ knotsBaromVisibWave heightAir tempDewpointWater temp
2014-Nov-24 06:33N 48°52' W 123°21'1212.3
2014-Nov-24 05:33N 49°00' W 123°08'1110.7
2014-Nov-24 04:33N 48°52' W 123°18'0 0.2
2014-Nov-24 03:33N 48°52' W 123°18'1110.5
2014-Nov-24 02:33N 49°00' W 123°08'5 5.4
2014-Nov-24 01:34N 48°56' W 123°13'7 6.5
2014-Nov-24 00:29N 48°51' W 123°20'4 1.5
2014-Nov-23 22:04N 48°50' W 123°25'5 7.1
2014-Nov-23 21:23N 48°48' W 123°19'4 5.1
2014-Nov-23 20:33N 48°52' W 123°18'8 7.5
2014-Nov-23 19:33N 48°58' W 123°12'3 3.4
2014-Nov-23 18:33N 49°00' W 123°08'10 9.9
2014-Nov-23 17:33N 48°53' W 123°18'3 2.8
2014-Nov-23 16:28N 48°50' W 123°20'2 0.2
2014-Nov-23 06:34N 48°51' W 123°24'3 3.4
2014-Nov-23 05:33N 48°53' W 123°19'1110.6
2014-Nov-23 04:33N 49°00' W 123°08'0 0.0
2014-Nov-23 03:33N 49°00' W 123°08'0 0.0
2014-Nov-23 02:33N 49°00' W 123°08'1110.6
2014-Nov-23 01:33N 48°53' W 123°19'5 4.6
2014-Nov-23 00:33N 48°48' W 123°20'5 1.5
2014-Nov-22 21:33N 48°51' W 123°25'1211.9
2014-Nov-22 20:33N 48°59' W 123°11'2 1.8
2014-Nov-22 19:34N 48°57' W 123°12'8 6.0
2014-Nov-22 18:11N 48°51' W 123°20'2 3.1
2014-Nov-22 17:33N 48°53' W 123°19'1110.5
2014-Nov-22 16:33N 49°00' W 123°08'5 4.8
2014-Nov-22 15:34N 48°57' W 123°13'10 1.1
2014-Nov-22 06:14N 48°50' W 123°25'4 6.1
2014-Nov-22 05:32N 48°48' W 123°20'5 4.9
2014-Nov-22 04:34N 48°53' W 123°19'1010.1
2014-Nov-22 03:33N 48°60' W 123°08'1 0.5
2014-Nov-22 02:33N 49°00' W 123°08'1110.6
2014-Nov-22 01:33N 48°53' W 123°19'2 1.9
2014-Nov-22 00:22N 48°50' W 123°20'3 3.3
2014-Nov-21 23:31N 48°49' W 123°24'3 1.1
2014-Nov-21 20:23N 48°48' W 123°19'4 4.2
2014-Nov-21 19:32N 48°52' W 123°20'8 8.4
2014-Nov-21 18:33N 48°58' W 123°12'4 3.6
2014-Nov-21 17:33N 49°00' W 123°08'10 9.7
2014-Nov-21 16:33N 48°53' W 123°18'3 2.6
2014-Nov-21 15:31N 48°51' W 123°20'4 3.6
2014-Nov-21 14:30N 48°50' W 123°25'0 0.1
2014-Nov-21 06:07N 48°50' W 123°25'5 6.8
2014-Nov-21 05:27N 48°48' W 123°20'5 5.4
2014-Nov-21 04:34N 48°53' W 123°19'1010.3
2014-Nov-21 03:34N 49°00' W 123°08'0 0.3
2014-Nov-21 02:34N 49°00' W 123°08'1110.4
2014-Nov-21 01:32N 48°53' W 123°19'2 1.9
2014-Nov-21 00:30N 48°51' W 123°20'3 0.7
2014-Nov-20 20:29N 48°48' W 123°19'4 3.7
2014-Nov-20 19:32N 48°52' W 123°19'8 8.6
2014-Nov-20 18:34N 48°58' W 123°12'3 3.1
2014-Nov-20 17:33N 49°00' W 123°08'1010.3
2014-Nov-20 16:33N 48°53' W 123°18'2 2.1
2014-Nov-20 15:29N 48°51' W 123°20'3 3.6
2014-Nov-20 14:33N 48°50' W 123°25'1 0.1
2014-Nov-20 06:05N 48°51' W 123°25'5 7.3
2014-Nov-20 05:24N 48°48' W 123°19'4 4.6
2014-Nov-20 04:34N 48°52' W 123°19'9 9.0
2014-Nov-20 03:34N 48°59' W 123°10'2 2.0
2014-Nov-20 02:33N 49°00' W 123°08'1110.6
2014-Nov-20 01:33N 48°53' W 123°19'2 1.8
2014-Nov-20 00:29N 48°51' W 123°20'3 0.7
2014-Nov-19 20:32N 48°48' W 123°19'4 3.8
2014-Nov-19 19:33N 48°52' W 123°20'7 7.5
2014-Nov-19 18:34N 48°57' W 123°13'4 4.2
2014-Nov-19 17:29N 49°00' W 123°08'1010.4
2014-Nov-19 16:33N 48°53' W 123°18'3 2.5
2014-Nov-19 15:29N 48°51' W 123°20'4 3.6
2014-Nov-19 14:31N 48°50' W 123°25'1 0.1
2014-Nov-19 06:05N 48°50' W 123°25'5 8.6
2014-Nov-19 05:31N 48°48' W 123°19'4 4.6
2014-Nov-19 04:33N 48°52' W 123°18'9 8.8
2014-Nov-19 03:34N 48°59' W 123°10'2 1.7
2014-Nov-19 02:33N 49°00' W 123°08'11 9.7
2014-Nov-19 01:28N 48°53' W 123°19'2 2.2
2014-Nov-19 00:33N 48°51' W 123°20'3 0.7
2014-Nov-18 20:23N 48°48' W 123°19'4 4.3
2014-Nov-18 19:30N 48°52' W 123°21'7 7.1
2014-Nov-18 18:33N 48°57' W 123°14'5 5.3
2014-Nov-18 17:33N 49°00' W 123°08'1010.0
2014-Nov-18 16:33N 48°53' W 123°18'2 2.5
2014-Nov-18 15:33N 48°51' W 123°20'4 0.4
2014-Nov-18 06:09N 48°51' W 123°25'5 7.6
2014-Nov-18 05:30N 48°48' W 123°19'4 4.0
2014-Nov-18 04:33N 48°52' W 123°19'9 9.3
2014-Nov-18 03:34N 48°59' W 123°10'2 1.8
2014-Nov-18 02:33N 49°00' W 123°08'1110.6
2014-Nov-18 01:33N 48°53' W 123°19'2 1.9
2014-Nov-18 00:28N 48°51' W 123°20'3 3.3
2014-Nov-17 23:28N 48°50' W 123°25'5 1.6
2014-Nov-17 20:31N 48°48' W 123°19'4 4.0
2014-Nov-17 19:33N 48°52' W 123°20'9 8.9
2014-Nov-17 18:33N 48°58' W 123°11'3 3.1
2014-Nov-17 17:33N 49°00' W 123°08'1010.3
2014-Nov-17 16:33N 48°53' W 123°18'2 2.1
2014-Nov-17 15:30N 48°51' W 123°20'3 3.5
2014-Nov-17 14:33N 48°49' W 123°24'4 0.5
2014-Nov-17 06:33N 48°52' W 123°19'1111.3
2014-Nov-17 05:33N 49°00' W 123°08'1211.9
2014-Nov-17 04:33N 48°52' W 123°20'4 4.0
2014-Nov-17 03:33N 48°55' W 123°16'8 8.0
2014-Nov-17 02:33N 49°00' W 123°08'7 6.8
2014-Nov-17 01:34N 48°55' W 123°14'6 5.1
2014-Nov-17 00:29N 48°51' W 123°20'5 2.0
2014-Nov-16 22:09N 48°51' W 123°27'610.0
2014-Nov-16 21:33N 48°48' W 123°19'4 3.8
2014-Nov-16 20:33N 48°52' W 123°20'9 9.1
2014-Nov-16 19:33N 48°58' W 123°11'3 3.0
2014-Nov-16 18:33N 49°00' W 123°08'10 9.6
2014-Nov-16 17:34N 48°53' W 123°18'3 2.7
2014-Nov-16 16:32N 48°51' W 123°20'3 3.5
2014-Nov-16 15:33N 48°49' W 123°24'3 0.3
2014-Nov-16 06:32N 48°51' W 123°21'3 3.0
2014-Nov-16 05:33N 48°53' W 123°18'10 9.6
2014-Nov-16 04:33N 49°00' W 123°08'0 0.0
2014-Nov-16 03:34N 49°00' W 123°08'1 0.7
2014-Nov-16 02:33N 48°60' W 123°08'10 9.9
2014-Nov-16 01:33N 48°53' W 123°19'4 4.4
2014-Nov-16 00:33N 48°48' W 123°20'4 1.3
2014-Nov-15 21:23N 48°50' W 123°25'1214.4
2014-Nov-15 20:33N 48°58' W 123°11'1 1.3
2014-Nov-15 19:33N 48°58' W 123°09'10 8.1
2014-Nov-15 18:19N 48°51' W 123°20'2 2.6
2014-Nov-15 17:33N 48°53' W 123°19'1110.4
2014-Nov-15 16:33N 49°00' W 123°08'5 4.9
2014-Nov-15 15:34N 48°56' W 123°12'11 1.2
2014-Nov-15 06:22N 48°51' W 123°26'5 6.3
2014-Nov-15 05:33N 48°48' W 123°20'5 4.8
2014-Nov-15 04:33N 48°53' W 123°19'1010.2
2014-Nov-15 03:34N 49°00' W 123°08'0 0.4
2014-Nov-15 02:33N 49°00' W 123°08'1110.5
2014-Nov-15 01:33N 48°53' W 123°19'2 1.9
2014-Nov-15 00:30N 48°51' W 123°20'4 3.5
2014-Nov-14 23:28N 48°50' W 123°25'4 1.3
2014-Nov-14 20:18N 48°48' W 123°20'4 5.1
2014-Nov-14 19:33N 48°52' W 123°19'9 9.1
2014-Nov-14 18:33N 48°59' W 123°11'3 2.5
2014-Nov-14 17:34N 49°00' W 123°08'1010.3
2014-Nov-14 16:33N 48°53' W 123°18'2 2.0
2014-Nov-14 15:32N 48°51' W 123°20'  

Dump ship's entire track history